A- A+ FrançaisEnglishEspañol中国

最近的 特别机场 旧机场 CYMW ManiwakiLEVT Vitoria LFBT Tarbes-Lourdes-PyrénéesVEJS JamshedpurVEDX Kalaikunda Air Force StationVISR Srinagar

飞行员的航空天气,使用METAR(气象机场报告)进行的飞行准备和TAF(终端机场预报:针对以下情况的短期天气预报)航空)。 以及其他资源,例如VAC(目视进近图)和NOTAM(通知飞行员)以进行预试飞行.

METAR, TAF, VAC, NOTAM Belo Horizonte机场 (巴西) / OACI SBBH/ IATA PLU

Belo Horizonte 它位于附近 Belo Horizonte, Venda Nova 在 4 km, Belo Horizonte 在 8 km, Santa Luzia 在 14 km, Contagem 在 14 km, Sabará 在 16 km, Ribeirao das Neves 在 17 km, Vespasiano 在 18 km, Nova Lima 在 18 km, Raposos 在 20 km, Ibirite 在 22 km,

海拔 Belo Horizonte机场的

789 m = 2589 ft

跑道 Belo Horizonte机场的

附近的机场Belo Horizonte机场的

目前的天气 Belo Horizonte机场的 - SBBH

ciel dégagé
23 °C

Vent 13 km/h = 7 kt

可提供5天天气预报 Venda Nova 在 4 km, Belo Horizonte 在 8 km, Santa Luzia 在 14 km, Contagem 在 14 km, Sabará 在 16 km, Ribeirao das Neves 在 17 km, Vespasiano 在 18 km, Nova Lima 在 18 km, Raposos 在 20 km, Ibirite 在 22 km,

METAR Belo Horizonte机场的 - SBBH

SBBH 260200Z 11007KT CAVOK 23/15 Q1018

Belo Horizonte机场METAR解码 (巴西)

SBBH机场发行的METAR日期2021年01月26日至02:00 GMT, 警告:此METAR已过期, 已于 2 天 0 分钟.

天花板和能见度好,能见度超过10 km,5000英尺以下或最低扇区高度以下没有云。 没有积雨云或发芽的积云,无论它们的高度如何,也没有明显的天气

可见度为大于 10 km = 大于6 sm.

温度为23°C = 73 °F 露点为15°C = 59 °F 。 这相当于61%的相对湿度。.

QNH是1018 hPa = 30.06 inHg

的风7 kt = 13 km/h, 风向为110°.

天空晴朗

TAF Belo Horizonte机场的 - SBBH

没有TAF,但可以使用航空天气 Belo Horizonte Tancredo机场的 (SBCF) 在 25 km

Belo Horizonte机场的NOTAM

提供的NOTAM不能保证其时事性。 在将其用于飞行准备或在飞行期间使用之前,飞行员是唯一负责验证其有效性的人员。

没有通知

数据源